createdAt,value
2018-04-01T00:01:35.927Z,42.00
2018-04-01T00:04:03.243Z,42.00
2018-04-01T00:06:31.279Z,42.10
2018-04-01T00:08:58.594Z,42.00
2018-04-01T00:11:25.882Z,42.00
2018-04-01T00:13:53.153Z,42.10
2018-04-01T00:16:20.442Z,42.40
2018-04-01T00:18:47.720Z,42.30
2018-04-01T00:21:15.070Z,42.10
2018-04-01T00:23:42.312Z,42.30
2018-04-01T00:26:09.618Z,42.20
2018-04-01T00:28:36.970Z,42.20
2018-04-01T00:31:04.233Z,42.30
2018-04-01T00:33:31.539Z,41.90
2018-04-01T00:35:58.767Z,42.20
2018-04-01T00:38:26.101Z,42.30
2018-04-01T00:40:53.387Z,42.30
2018-04-01T00:43:20.684Z,42.30
2018-04-01T00:45:47.921Z,42.30
2018-04-01T00:48:15.331Z,42.40
2018-04-01T00:50:42.596Z,42.70
2018-04-01T00:53:09.831Z,42.50
2018-04-01T00:55:37.180Z,42.50
2018-04-01T00:58:04.522Z,42.40
2018-04-01T01:00:31.798Z,42.70
2018-04-01T01:02:59.115Z,43.10
2018-04-01T01:05:26.431Z,43.60
2018-04-01T01:07:53.712Z,43.80
2018-04-01T01:10:20.974Z,43.90
2018-04-01T01:12:48.251Z,44.30
2018-04-01T01:15:15.496Z,44.60
2018-04-01T01:17:42.755Z,44.50
2018-04-01T01:20:10.041Z,44.70
2018-04-01T01:22:37.376Z,45.00
2018-04-01T01:25:04.692Z,44.90
2018-04-01T01:27:31.952Z,45.00
2018-04-01T01:30:00.000Z,45.10
2018-04-01T01:32:27.236Z,45.00
2018-04-01T01:34:54.535Z,45.00
2018-04-01T01:37:21.868Z,45.10
2018-04-01T01:39:49.151Z,45.30
2018-04-01T01:42:16.419Z,45.00
2018-04-01T01:44:43.679Z,44.90
2018-04-01T01:47:10.953Z,44.90
2018-04-01T01:49:38.205Z,44.70
2018-04-01T01:52:05.555Z,44.60
2018-04-01T01:54:32.887Z,44.70
2018-04-01T01:57:00.260Z,44.60
2018-04-01T01:59:27.764Z,44.90
2018-04-01T02:01:55.009Z,45.30
2018-04-01T02:04:22.309Z,45.40
2018-04-01T02:06:50.437Z,45.80
2018-04-01T02:09:17.766Z,45.70
2018-04-01T02:11:45.081Z,46.30
2018-04-01T02:14:12.448Z,46.20
2018-04-01T02:16:41.293Z,46.30
2018-04-01T02:19:08.635Z,46.30
2018-04-01T02:21:35.989Z,46.20
2018-04-01T02:24:03.292Z,46.40
2018-04-01T02:26:30.613Z,46.40
2018-04-01T02:28:57.964Z,46.70
2018-04-01T02:31:25.222Z,47.00
2018-04-01T02:33:52.577Z,47.40
2018-04-01T02:36:19.930Z,47.60
2018-04-01T02:38:47.168Z,47.50
2018-04-01T02:41:14.452Z,47.90
2018-04-01T02:43:41.784Z,47.70
2018-04-01T02:46:09.088Z,47.30
2018-04-01T02:48:36.368Z,48.00
2018-04-01T02:51:03.658Z,47.90
2018-04-01T02:53:30.918Z,48.30
2018-04-01T02:55:58.271Z,47.80
2018-04-01T02:58:25.554Z,47.60
2018-04-01T03:00:52.985Z,47.30
2018-04-01T03:03:20.386Z,47.10
2018-04-01T03:05:47.732Z,46.90
2018-04-01T03:08:15.021Z,49.50
2018-04-01T03:10:43.084Z,47.80
2018-04-01T03:13:11.093Z,46.70
2018-04-01T03:15:38.384Z,46.60
2018-04-01T03:18:05.648Z,47.00
2018-04-01T03:20:32.899Z,46.30
2018-04-01T03:23:00.217Z,45.90
2018-04-01T03:25:27.537Z,46.20
2018-04-01T03:27:55.562Z,47.20
2018-04-01T03:30:22.911Z,47.10
2018-04-01T03:32:50.247Z,47.20
2018-04-01T03:35:17.555Z,47.70
2018-04-01T03:37:44.858Z,47.80
2018-04-01T03:40:12.853Z,47.60
2018-04-01T03:42:40.196Z,47.60
2018-04-01T03:45:07.447Z,47.90
2018-04-01T03:47:34.797Z,47.70
2018-04-01T03:50:02.137Z,48.30
2018-04-01T03:52:32.182Z,48.40
2018-04-01T03:54:59.498Z,48.40
2018-04-01T03:57:27.614Z,48.80
2018-04-01T03:59:54.948Z,48.60
2018-04-01T04:02:22.271Z,48.70
2018-04-01T04:04:49.657Z,48.80
2018-04-01T04:07:17.791Z,49.20
2018-04-01T04:09:45.117Z,49.10
2018-04-01T04:12:12.427Z,48.90
2018-04-01T04:14:39.676Z,48.60
2018-04-01T04:17:07.062Z,48.70
2018-04-01T04:19:34.345Z,48.10
2018-04-01T04:22:01.777Z,48.20
2018-04-01T04:24:29.012Z,48.00
2018-04-01T04:26:56.365Z,47.70
2018-04-01T04:29:23.725Z,47.20
2018-04-01T04:31:51.035Z,47.20
2018-04-01T04:34:18.360Z,47.00
2018-04-01T04:36:45.697Z,46.80
2018-04-01T04:39:13.343Z,46.50
2018-04-01T04:41:40.671Z,46.70
2018-04-01T04:44:07.937Z,45.80
2018-04-01T04:46:35.288Z,45.90
2018-04-01T04:49:02.615Z,45.90
2018-04-01T04:51:29.906Z,45.50
2018-04-01T04:53:57.155Z,45.20
2018-04-01T04:56:24.431Z,45.50
2018-04-01T04:58:51.699Z,45.40
2018-04-01T05:01:18.993Z,45.50
2018-04-01T05:03:46.472Z,45.80
2018-04-01T05:06:13.708Z,45.30
2018-04-01T05:08:40.936Z,45.20
2018-04-01T05:11:08.344Z,45.10
2018-04-01T05:13:35.633Z,45.10
2018-04-01T05:16:02.899Z,45.00
2018-04-01T05:18:30.232Z,45.50
2018-04-01T05:20:57.607Z,45.60
2018-04-01T05:23:24.889Z,45.80
2018-04-01T05:25:52.247Z,46.00
2018-04-01T05:28:19.557Z,46.20
2018-04-01T05:30:46.853Z,46.30
2018-04-01T05:33:14.904Z,46.20
2018-04-01T05:35:42.200Z,46.20
2018-04-01T05:38:09.537Z,46.00
2018-04-01T05:40:36.780Z,46.30
2018-04-01T05:43:04.920Z,46.30
2018-04-01T05:45:32.233Z,46.30
2018-04-01T05:47:59.506Z,46.30
2018-04-01T05:50:26.824Z,46.20
2018-04-01T05:52:54.104Z,46.30
2018-04-01T05:55:21.466Z,46.10
2018-04-01T05:57:48.709Z,46.50
2018-04-01T06:00:16.053Z,46.30
2018-04-01T06:02:43.448Z,46.30
2018-04-01T06:05:10.738Z,45.80
2018-04-01T06:07:37.990Z,46.10
2018-04-01T06:10:05.291Z,46.10
2018-04-01T06:12:32.790Z,46.00
2018-04-01T06:15:00.876Z,45.60
2018-04-01T06:17:28.182Z,45.50
2018-04-01T06:19:55.494Z,45.30
2018-04-01T06:27:03.931Z,45.20
2018-04-01T06:29:31.263Z,44.40
2018-04-01T06:31:58.709Z,44.60
2018-04-01T06:34:26.089Z,44.80
2018-04-01T06:36:55.802Z,44.20
2018-04-01T06:39:23.263Z,44.10
2018-04-01T06:41:50.617Z,44.10
2018-04-01T06:44:18.006Z,44.10
2018-04-01T06:46:45.294Z,43.60
2018-04-01T06:49:13.822Z,43.50
2018-04-01T06:51:41.925Z,43.50
2018-04-01T06:54:09.208Z,43.40
2018-04-01T06:56:36.547Z,43.60
2018-04-01T06:59:03.829Z,43.50
2018-04-01T07:01:31.126Z,43.70
2018-04-01T07:03:58.591Z,43.70
2018-04-01T07:06:29.717Z,43.80
2018-04-01T07:08:57.427Z,42.90
2018-04-01T07:11:26.355Z,43.10
2018-04-01T07:13:53.719Z,42.90
2018-04-01T07:16:21.100Z,43.00
2018-04-01T07:18:48.753Z,43.10
2018-04-01T07:21:16.136Z,43.20
2018-04-01T07:23:43.453Z,43.20
2018-04-01T07:26:10.778Z,42.90
2018-04-01T07:28:39.634Z,43.40
2018-04-01T07:31:06.970Z,43.00
2018-04-01T07:33:34.262Z,41.60
2018-04-01T07:36:01.592Z,43.40
2018-04-01T07:38:28.908Z,41.50
2018-04-01T07:40:56.352Z,39.60
2018-04-01T07:43:23.689Z,39.70
2018-04-01T07:45:51.012Z,39.90
2018-04-01T07:48:18.277Z,38.50
2018-04-01T07:50:45.550Z,37.60
2018-04-01T07:53:12.971Z,37.90
2018-04-01T07:55:40.228Z,38.20
2018-04-01T07:58:07.507Z,37.70
2018-04-01T08:00:34.890Z,39.20
2018-04-01T08:03:03.118Z,37.50
2018-04-01T08:05:30.429Z,37.50
2018-04-01T08:07:58.483Z,37.20
2018-04-01T08:10:25.835Z,37.10
2018-04-01T08:12:53.172Z,37.10
2018-04-01T08:15:20.650Z,37.10
2018-04-01T08:17:48.048Z,37.00
2018-04-01T08:20:16.057Z,38.90
2018-04-01T08:25:29.406Z,35.70
2018-04-01T08:27:57.519Z,36.30
2018-04-01T08:30:25.606Z,36.00
2018-04-01T08:32:52.888Z,36.00
2018-04-01T08:35:20.112Z,35.10
2018-04-01T08:37:47.427Z,34.20
2018-04-01T08:40:14.757Z,37.40
2018-04-01T08:42:42.065Z,33.30
2018-04-01T08:45:09.299Z,36.40
2018-04-01T08:47:36.550Z,36.30
2018-04-01T08:50:03.915Z,34.30
2018-04-01T08:52:32.088Z,32.10
2018-04-01T08:54:59.350Z,32.60
2018-04-01T08:57:26.646Z,33.20
2018-04-01T08:59:54.432Z,33.00
2018-04-01T09:02:21.710Z,34.10
2018-04-01T09:04:49.907Z,32.50
2018-04-01T09:07:18.550Z,33.40
2018-04-01T09:09:46.015Z,34.20
2018-04-01T09:12:13.292Z,33.70
2018-04-01T09:14:40.618Z,33.00
2018-04-01T09:17:07.867Z,34.40
2018-04-01T09:19:35.865Z,33.00
2018-04-01T09:22:03.132Z,33.00
2018-04-01T09:24:30.435Z,32.50
2018-04-01T09:26:57.949Z,32.70
2018-04-01T09:29:25.167Z,32.80
2018-04-01T09:31:52.458Z,33.30
2018-04-01T09:34:20.672Z,33.20
2018-04-01T09:36:48.032Z,33.10
2018-04-01T09:39:15.276Z,33.00
2018-04-01T09:41:42.682Z,38.20
2018-04-01T09:44:09.955Z,34.90
2018-04-01T09:46:37.181Z,33.70
2018-04-01T09:49:04.624Z,32.30
2018-04-01T09:51:31.903Z,31.50
2018-04-01T09:53:59.138Z,34.10
2018-04-01T09:56:26.399Z,32.80
2018-04-01T09:58:53.963Z,32.30
2018-04-01T10:01:22.494Z,31.20
2018-04-01T10:03:50.206Z,31.30
2018-04-01T10:06:17.911Z,29.20
2018-04-01T10:08:45.818Z,29.70
2018-04-01T10:11:13.542Z,31.00
2018-04-01T10:13:41.313Z,30.30
2018-04-01T10:16:09.202Z,31.20
2018-04-01T10:18:37.009Z,29.40
2018-04-01T10:21:05.507Z,29.50
2018-04-01T10:23:33.271Z,29.60
2018-04-01T10:26:01.070Z,28.70
2018-04-01T10:28:28.851Z,28.80
2018-04-01T10:30:56.755Z,29.70
2018-04-01T10:33:25.436Z,28.40
2018-04-01T10:35:53.212Z,28.30
2018-04-01T10:38:21.189Z,27.90
2018-04-01T10:40:49.036Z,30.00
2018-04-01T10:43:16.808Z,31.90
2018-04-01T10:45:44.644Z,28.10
2018-04-01T10:48:13.228Z,29.80
2018-04-01T10:50:41.498Z,29.70
2018-04-01T10:53:09.511Z,28.90
2018-04-01T10:55:36.935Z,24.90
2018-04-01T10:58:04.174Z,27.20
2018-04-01T11:00:31.400Z,26.10
2018-04-01T11:02:58.738Z,26.20
2018-04-01T11:05:25.968Z,27.40
2018-04-01T11:07:53.289Z,24.80
2018-04-01T11:10:20.557Z,25.30
2018-04-01T11:12:47.791Z,25.50
2018-04-01T11:15:15.071Z,28.70
2018-04-01T11:17:42.341Z,24.90
2018-04-01T11:20:09.555Z,25.00
2018-04-01T11:22:36.791Z,25.00
2018-04-01T11:25:04.915Z,27.90
2018-04-01T11:27:32.188Z,27.30
2018-04-01T11:29:59.508Z,26.30
2018-04-01T11:32:26.811Z,31.60
2018-04-01T11:34:54.147Z,25.20
2018-04-01T11:37:21.491Z,25.30
2018-04-01T11:39:48.744Z,27.00
2018-04-01T11:42:16.018Z,26.10
2018-04-01T11:44:43.264Z,24.70
2018-04-01T11:47:10.534Z,26.20
2018-04-01T11:49:37.762Z,25.00
2018-04-01T11:52:05.529Z,22.20
2018-04-01T11:54:32.751Z,25.30
2018-04-01T11:56:59.964Z,24.80
2018-04-01T11:59:27.247Z,22.50
2018-04-01T12:01:54.516Z,23.70
2018-04-01T12:04:21.756Z,23.90
2018-04-01T12:06:49.051Z,24.30
2018-04-01T12:09:16.285Z,25.30
2018-04-01T12:11:43.597Z,25.50
2018-04-01T12:14:10.853Z,25.00
2018-04-01T12:16:38.063Z,23.60
2018-04-01T12:19:05.368Z,25.90
2018-04-01T12:21:32.650Z,24.60
2018-04-01T12:23:59.887Z,24.20
2018-04-01T12:26:27.258Z,24.40
2018-04-01T12:28:54.522Z,22.70
2018-04-01T12:31:22.591Z,22.80
2018-04-01T12:33:50.582Z,22.30
2018-04-01T12:36:17.907Z,22.20
2018-04-01T12:38:45.157Z,21.10
2018-04-01T12:41:12.503Z,23.40
2018-04-01T12:43:39.784Z,23.50
2018-04-01T12:46:07.075Z,21.00
2018-04-01T12:48:34.326Z,20.00
2018-04-01T12:51:01.593Z,18.90
2018-04-01T12:53:28.800Z,22.60
2018-04-01T12:55:56.820Z,18.80
2018-04-01T12:58:24.047Z,18.80
2018-04-01T13:00:51.346Z,20.10
2018-04-01T13:03:18.547Z,18.30
2018-04-01T13:05:46.610Z,18.70
2018-04-01T13:08:13.911Z,18.60
2018-04-01T13:10:41.195Z,20.70
2018-04-01T13:13:08.450Z,24.30
2018-04-01T13:15:35.725Z,20.90
2018-04-01T13:18:03.109Z,19.00
2018-04-01T13:20:30.392Z,17.80
2018-04-01T13:22:57.674Z,24.50
2018-04-01T13:25:25.041Z,22.40
2018-04-01T13:27:52.306Z,18.50
2018-04-01T13:30:20.438Z,18.40
2018-04-01T13:32:47.769Z,18.40
2018-04-01T13:35:15.103Z,18.50
2018-04-01T13:37:42.485Z,18.40
2018-04-01T13:40:09.951Z,19.30
2018-04-01T13:42:37.243Z,21.70
2018-04-01T13:45:04.589Z,19.20
2018-04-01T13:47:31.856Z,19.50
2018-04-01T13:49:59.230Z,22.00
2018-04-01T13:52:26.493Z,19.50
2018-04-01T13:54:53.802Z,19.10
2018-04-01T13:57:21.150Z,20.60
2018-04-01T13:59:48.424Z,20.60
2018-04-01T14:02:15.711Z,20.70
2018-04-01T14:04:43.003Z,19.70
2018-04-01T14:07:10.276Z,19.50
2018-04-01T14:09:37.668Z,19.90
2018-04-01T14:12:04.967Z,20.20
2018-04-01T14:14:32.199Z,21.30
2018-04-01T14:17:00.287Z,21.60
2018-04-01T14:19:27.567Z,21.50
2018-04-01T14:21:54.882Z,23.10
2018-04-01T14:24:22.228Z,20.30
2018-04-01T14:26:49.651Z,19.60
2018-04-01T14:29:17.849Z,19.90
2018-04-01T14:31:45.134Z,20.10
2018-04-01T14:34:12.359Z,19.90
2018-04-01T14:36:43.769Z,20.50
2018-04-01T14:39:11.164Z,20.20
2018-04-01T14:41:48.471Z,20.10
2018-04-01T14:44:18.988Z,20.00
2018-04-01T14:46:46.398Z,20.20
2018-04-01T14:49:13.730Z,20.10
2018-04-01T14:51:41.098Z,23.30
2018-04-01T14:54:08.442Z,21.10
2018-04-01T14:56:36.668Z,19.80
2018-04-01T14:59:03.894Z,19.70
2018-04-01T15:01:31.173Z,21.00
2018-04-01T15:03:58.475Z,21.10
2018-04-01T15:06:25.863Z,25.80
2018-04-01T15:08:53.207Z,19.10
2018-04-01T15:11:21.241Z,19.00
2018-04-01T15:13:48.489Z,19.00
2018-04-01T15:16:16.952Z,20.20
2018-04-01T15:18:44.346Z,18.70
2018-04-01T15:21:17.214Z,18.10
2018-04-01T15:23:44.570Z,20.00
2018-04-01T15:26:11.811Z,17.70
2018-04-01T15:28:39.136Z,17.90
2018-04-01T15:31:07.737Z,20.00
2018-04-01T15:33:35.036Z,17.60
2018-04-01T15:36:02.366Z,20.00
2018-04-01T15:38:29.633Z,16.40
2018-04-01T15:40:56.989Z,17.70
2018-04-01T15:43:24.310Z,16.60
2018-04-01T15:45:51.697Z,18.20
2018-04-01T15:48:19.033Z,16.30
2018-04-01T15:50:46.443Z,17.10
2018-04-01T15:53:13.730Z,16.90
2018-04-01T15:55:41.014Z,17.90
2018-04-01T15:58:08.275Z,17.60
2018-04-01T16:00:35.701Z,16.90
2018-04-01T16:03:02.976Z,20.00
2018-04-01T16:05:30.281Z,19.40
2018-04-01T16:07:59.698Z,18.10
2018-04-01T16:10:27.914Z,18.10
2018-04-01T16:12:56.161Z,16.60
2018-04-01T16:15:24.459Z,19.30
2018-04-01T16:17:51.731Z,18.90
2018-04-01T16:20:21.157Z,17.20
2018-04-01T16:22:48.482Z,17.10
2018-04-01T16:25:16.901Z,17.60
2018-04-01T16:27:44.252Z,18.80
2018-04-01T16:30:11.656Z,18.50
2018-04-01T16:35:14.107Z,17.00
2018-04-01T16:37:42.382Z,17.60
2018-04-01T16:40:09.768Z,17.90
2018-04-01T16:42:38.324Z,18.20
2018-04-01T16:45:05.599Z,17.70
2018-04-01T16:47:32.862Z,17.90
2018-04-01T16:50:00.219Z,18.20
2018-04-01T16:52:27.625Z,18.20
2018-04-01T16:54:54.994Z,18.20
2018-04-01T16:57:54.053Z,21.30
2018-04-01T17:05:09.677Z,18.60
2018-04-01T17:17:29.728Z,19.10
2018-04-01T17:19:56.990Z,19.50
2018-04-01T17:22:24.399Z,20.30
2018-04-01T17:24:51.631Z,20.00
2018-04-01T17:27:18.890Z,21.50
2018-04-01T17:29:46.131Z,24.90
2018-04-01T17:32:13.371Z,22.20
2018-04-01T17:34:40.645Z,21.40
2018-04-01T17:37:07.886Z,21.30
2018-04-01T17:39:35.902Z,21.60
2018-04-01T17:42:03.734Z,21.50
2018-04-01T17:44:31.132Z,21.60
2018-04-01T17:46:59.305Z,21.80
2018-04-01T17:57:06.807Z,22.20
2018-04-01T17:59:34.245Z,22.50
2018-04-01T18:02:10.091Z,22.30
2018-04-01T18:15:59.665Z,25.60
2018-04-01T18:18:26.957Z,26.50
2018-04-01T18:20:54.562Z,27.30
2018-04-01T18:23:24.064Z,27.40
2018-04-01T18:25:53.093Z,28.10
2018-04-01T18:28:21.313Z,28.50
2018-04-01T18:30:54.982Z,28.40
2018-04-01T18:33:22.439Z,29.00
2018-04-01T18:35:49.951Z,29.30
2018-04-01T18:38:17.396Z,29.50
2018-04-01T18:40:44.753Z,30.70
2018-04-01T18:43:12.155Z,30.40
2018-04-01T18:45:41.154Z,30.70
2018-04-01T18:48:08.554Z,31.00
2018-04-01T18:50:36.376Z,31.30
2018-04-01T18:53:04.283Z,32.60
2018-04-01T18:55:31.923Z,32.20
2018-04-01T18:57:59.735Z,32.50
2018-04-01T19:00:26.991Z,32.60
2018-04-01T19:02:54.882Z,32.80
2018-04-01T19:05:23.244Z,33.00
2018-04-01T19:07:51.399Z,33.20
2018-04-01T19:10:19.949Z,33.00
2018-04-01T19:12:47.561Z,33.20
2018-04-01T19:15:15.743Z,33.90
2018-04-01T19:17:43.904Z,33.90
2018-04-01T19:20:11.792Z,33.80
2018-04-01T19:22:40.729Z,33.90
2018-04-01T19:25:09.947Z,34.10
2018-04-01T19:27:37.766Z,34.10
2018-04-01T19:30:05.670Z,34.10
2018-04-01T19:32:34.086Z,34.50
2018-04-01T19:35:02.179Z,34.30
2018-04-01T19:37:30.143Z,34.10
2018-04-01T19:39:59.079Z,34.20
2018-04-01T19:42:27.275Z,34.00
2018-04-01T19:44:56.449Z,34.40
2018-04-01T19:47:26.843Z,34.40
2018-04-01T19:49:56.375Z,34.50
2018-04-01T19:52:26.013Z,34.30
2018-04-01T19:54:55.167Z,34.50
2018-04-01T19:57:24.105Z,34.60
2018-04-01T19:59:53.569Z,34.10
2018-04-01T20:02:22.406Z,34.20
2018-04-01T20:04:50.535Z,34.10
2018-04-01T20:07:19.020Z,34.00
2018-04-01T20:09:47.638Z,34.00
2018-04-01T20:12:17.001Z,33.70
2018-04-01T20:14:46.353Z,33.80
2018-04-01T20:17:15.319Z,34.00
2018-04-01T20:19:44.920Z,33.80
2018-04-01T20:22:14.569Z,34.10
2018-04-01T20:24:43.812Z,33.50
2018-04-01T20:27:11.673Z,34.20
2018-04-01T20:29:40.249Z,33.30
2018-04-01T20:32:09.582Z,33.00
2018-04-01T20:34:37.333Z,33.00
2018-04-01T20:37:05.847Z,32.90
2018-04-01T20:39:34.578Z,32.80
2018-04-01T20:42:02.935Z,32.60
2018-04-01T20:44:32.001Z,33.00
2018-04-01T20:47:01.491Z,32.50
2018-04-01T20:49:29.432Z,33.10
2018-04-01T20:51:57.958Z,32.30
2018-04-01T20:54:27.162Z,32.00
2018-04-01T20:56:56.111Z,32.00
2018-04-01T20:59:24.446Z,32.00
2018-04-01T21:01:54.328Z,31.90
2018-04-01T21:04:23.696Z,31.60
2018-04-01T21:06:52.611Z,31.60
2018-04-01T21:09:21.714Z,31.30
2018-04-01T21:11:50.730Z,31.30
2018-04-01T21:14:19.099Z,31.20
2018-04-01T21:16:46.938Z,31.30
2018-04-01T21:19:14.721Z,31.40
2018-04-01T21:21:42.507Z,30.90
2018-04-01T21:24:10.316Z,30.60
2018-04-01T21:26:38.062Z,30.10
2018-04-01T21:29:05.955Z,30.40
2018-04-01T21:31:33.700Z,30.40
2018-04-01T21:34:01.403Z,30.40
2018-04-01T21:36:29.190Z,30.20
2018-04-01T21:38:56.935Z,30.60
2018-04-01T21:41:24.763Z,30.30
2018-04-01T21:43:52.672Z,30.00
2018-04-01T21:46:20.379Z,30.00
2018-04-01T21:48:49.088Z,30.10
2018-04-01T21:51:16.875Z,30.10
2018-04-01T21:53:45.077Z,30.30
2018-04-01T21:56:13.013Z,29.90
2018-04-01T21:58:40.942Z,30.60
2018-04-01T22:01:08.733Z,29.90
2018-04-01T22:03:36.498Z,29.80
2018-04-01T22:06:04.247Z,29.50
2018-04-01T22:08:32.105Z,29.60
2018-04-01T22:10:59.835Z,29.60
2018-04-01T22:13:27.607Z,29.80
2018-04-01T22:15:55.407Z,29.60
2018-04-01T22:18:23.204Z,29.60
2018-04-01T22:20:50.917Z,29.40
2018-04-01T22:23:18.691Z,29.70
2018-04-01T22:25:46.464Z,29.70
2018-04-01T22:28:14.182Z,29.60
2018-04-01T22:30:41.955Z,29.60
2018-04-01T22:33:09.742Z,29.80
2018-04-01T22:35:37.554Z,29.80
2018-04-01T22:38:06.105Z,29.50
2018-04-01T22:40:33.831Z,29.40
2018-04-01T22:43:01.599Z,29.40
2018-04-01T22:45:29.383Z,29.40
2018-04-01T22:47:57.215Z,29.40
2018-04-01T22:50:25.003Z,29.20
2018-04-01T22:52:53.546Z,28.90
2018-04-01T22:55:21.328Z,28.90
2018-04-01T22:57:49.103Z,28.90
2018-04-01T23:00:16.944Z,28.80
2018-04-01T23:02:44.708Z,28.80
2018-04-01T23:05:12.471Z,28.60
2018-04-01T23:07:40.238Z,28.80
2018-04-01T23:10:08.015Z,28.80
2018-04-01T23:12:35.711Z,28.90
2018-04-01T23:15:03.535Z,28.60
2018-04-01T23:17:31.304Z,28.60
2018-04-01T23:19:59.031Z,28.70
2018-04-01T23:22:26.745Z,28.40
2018-04-01T23:24:54.504Z,28.40
2018-04-01T23:27:22.268Z,28.70
2018-04-01T23:29:50.059Z,28.80
2018-04-01T23:32:18.611Z,28.90
2018-04-01T23:34:46.378Z,28.90
2018-04-01T23:37:14.176Z,28.70
2018-04-01T23:39:42.710Z,29.00
2018-04-01T23:42:10.444Z,29.00
2018-04-01T23:44:38.150Z,29.50
2018-04-01T23:47:05.947Z,28.80
2018-04-01T23:49:33.731Z,28.70
2018-04-01T23:52:01.492Z,28.80
2018-04-01T23:54:29.226Z,28.70
2018-04-01T23:56:57.006Z,28.80
2018-04-01T23:59:24.743Z,28.60
